sensor_id;sensor_type;location;lat;lon;timestamp;temperature;humidity
2751;DHT22;1383;48.362;10.908;2023-02-11T00:00:20;-0.80;64.70
2751;DHT22;1383;48.362;10.908;2023-02-11T00:02:47;-0.70;64.50
2751;DHT22;1383;48.362;10.908;2023-02-11T00:05:17;-0.80;64.50
2751;DHT22;1383;48.362;10.908;2023-02-11T00:07:44;-0.90;64.60
2751;DHT22;1383;48.362;10.908;2023-02-11T00:10:10;-0.90;64.90
2751;DHT22;1383;48.362;10.908;2023-02-11T00:12:37;-0.80;65.10
2751;DHT22;1383;48.362;10.908;2023-02-11T00:15:06;-0.80;65.00
2751;DHT22;1383;48.362;10.908;2023-02-11T00:17:33;-0.90;64.60
2751;DHT22;1383;48.362;10.908;2023-02-11T00:20:00;-0.90;65.00
2751;DHT22;1383;48.362;10.908;2023-02-11T00:22:26;-0.80;64.80
2751;DHT22;1383;48.362;10.908;2023-02-11T00:24:53;-0.80;64.60
2751;DHT22;1383;48.362;10.908;2023-02-11T00:27:20;-0.90;64.50
2751;DHT22;1383;48.362;10.908;2023-02-11T00:29:47;-0.90;64.60
2751;DHT22;1383;48.362;10.908;2023-02-11T00:32:13;-0.90;64.70
2751;DHT22;1383;48.362;10.908;2023-02-11T00:34:40;-0.90;64.80
2751;DHT22;1383;48.362;10.908;2023-02-11T00:37:07;-0.90;64.80
2751;DHT22;1383;48.362;10.908;2023-02-11T00:39:34;-0.80;64.40
2751;DHT22;1383;48.362;10.908;2023-02-11T00:42:00;-0.80;64.30
2751;DHT22;1383;48.362;10.908;2023-02-11T00:44:27;-0.90;64.40
2751;DHT22;1383;48.362;10.908;2023-02-11T00:46:54;-0.90;64.80
2751;DHT22;1383;48.362;10.908;2023-02-11T00:49:20;-0.90;65.10
2751;DHT22;1383;48.362;10.908;2023-02-11T00:51:47;-0.80;65.40
2751;DHT22;1383;48.362;10.908;2023-02-11T00:54:14;-0.80;65.10
2751;DHT22;1383;48.362;10.908;2023-02-11T00:56:41;-0.80;65.20
2751;DHT22;1383;48.362;10.908;2023-02-11T00:59:07;-0.80;65.40
2751;DHT22;1383;48.362;10.908;2023-02-11T01:01:34;-0.80;65.40
2751;DHT22;1383;48.362;10.908;2023-02-11T01:04:01;-0.80;65.60
2751;DHT22;1383;48.362;10.908;2023-02-11T01:06:28;-0.70;65.50
2751;DHT22;1383;48.362;10.908;2023-02-11T01:08:55;-0.70;65.10
2751;DHT22;1383;48.362;10.908;2023-02-11T01:11:22;-0.70;65.10
2751;DHT22;1383;48.362;10.908;2023-02-11T01:13:49;-0.70;65.10
2751;DHT22;1383;48.362;10.908;2023-02-11T01:16:17;-0.70;65.50
2751;DHT22;1383;48.362;10.908;2023-02-11T01:18:45;-0.70;65.50
2751;DHT22;1383;48.362;10.908;2023-02-11T01:21:12;-0.70;64.50
2751;DHT22;1383;48.362;10.908;2023-02-11T01:23:38;-0.70;64.20
2751;DHT22;1383;48.362;10.908;2023-02-11T01:26:05;-0.70;64.50
2751;DHT22;1383;48.362;10.908;2023-02-11T01:28:32;-0.70;64.40
2751;DHT22;1383;48.362;10.908;2023-02-11T01:31:01;-0.70;64.20
2751;DHT22;1383;48.362;10.908;2023-02-11T01:33:28;-0.70;64.30
2751;DHT22;1383;48.362;10.908;2023-02-11T01:35:59;-0.70;64.30
2751;DHT22;1383;48.362;10.908;2023-02-11T01:38:26;-0.80;64.10
2751;DHT22;1383;48.362;10.908;2023-02-11T01:43:21;-0.80;64.50
2751;DHT22;1383;48.362;10.908;2023-02-11T01:48:49;-0.90;64.80
2751;DHT22;1383;48.362;10.908;2023-02-11T01:51:23;-0.90;64.70
2751;DHT22;1383;48.362;10.908;2023-02-11T01:53:52;-0.90;64.50
2751;DHT22;1383;48.362;10.908;2023-02-11T01:56:41;-0.90;64.60
2751;DHT22;1383;48.362;10.908;2023-02-11T01:59:34;-0.90;64.60
2751;DHT22;1383;48.362;10.908;2023-02-11T02:02:07;-1.00;64.20
2751;DHT22;1383;48.362;10.908;2023-02-11T02:04:52;-1.20;64.20
2751;DHT22;1383;48.362;10.908;2023-02-11T02:07:28;-1.30;65.60
2751;DHT22;1383;48.362;10.908;2023-02-11T02:10:02;-1.30;65.70
2751;DHT22;1383;48.362;10.908;2023-02-11T02:12:30;-1.30;66.40
2751;DHT22;1383;48.362;10.908;2023-02-11T02:17:57;-1.20;66.90
2751;DHT22;1383;48.362;10.908;2023-02-11T02:20:42;-1.20;66.50
2751;DHT22;1383;48.362;10.908;2023-02-11T02:34:51;-1.40;67.70
2751;DHT22;1383;48.362;10.908;2023-02-11T02:37:26;-1.50;67.70
2751;DHT22;1383;48.362;10.908;2023-02-11T02:39:54;-1.40;67.80
2751;DHT22;1383;48.362;10.908;2023-02-11T02:42:23;-1.40;67.50
2751;DHT22;1383;48.362;10.908;2023-02-11T02:44:52;-1.40;67.50
2751;DHT22;1383;48.362;10.908;2023-02-11T02:47:19;-1.40;67.30
2751;DHT22;1383;48.362;10.908;2023-02-11T02:49:45;-1.40;67.40
2751;DHT22;1383;48.362;10.908;2023-02-11T02:55:16;-1.30;66.70
2751;DHT22;1383;48.362;10.908;2023-02-11T03:01:02;-1.20;66.00
2751;DHT22;1383;48.362;10.908;2023-02-11T03:03:48;-1.20;65.10
2751;DHT22;1383;48.362;10.908;2023-02-11T03:06:34;-1.10;65.20
2751;DHT22;1383;48.362;10.908;2023-02-11T03:09:10;-1.10;64.40
2751;DHT22;1383;48.362;10.908;2023-02-11T03:11:39;-1.10;64.10
2751;DHT22;1383;48.362;10.908;2023-02-11T03:14:09;-1.10;64.00
2751;DHT22;1383;48.362;10.908;2023-02-11T03:16:37;-1.10;63.00
2751;DHT22;1383;48.362;10.908;2023-02-11T03:19:27;-1.10;62.90
2751;DHT22;1383;48.362;10.908;2023-02-11T03:21:55;-1.10;62.80
2751;DHT22;1383;48.362;10.908;2023-02-11T03:24:27;-1.20;62.80
2751;DHT22;1383;48.362;10.908;2023-02-11T03:27:00;-1.30;63.20
2751;DHT22;1383;48.362;10.908;2023-02-11T03:29:59;-1.30;63.20
2751;DHT22;1383;48.362;10.908;2023-02-11T03:32:35;-1.30;63.50
2751;DHT22;1383;48.362;10.908;2023-02-11T03:35:06;-1.30;63.00
2751;DHT22;1383;48.362;10.908;2023-02-11T03:37:47;-1.30;63.40
2751;DHT22;1383;48.362;10.908;2023-02-11T03:40:24;-1.30;63.80
2751;DHT22;1383;48.362;10.908;2023-02-11T03:43:16;-1.30;62.90
2751;DHT22;1383;48.362;10.908;2023-02-11T03:45:45;-1.30;62.80
2751;DHT22;1383;48.362;10.908;2023-02-11T03:48:26;-1.30;62.90
2751;DHT22;1383;48.362;10.908;2023-02-11T03:50:55;-1.30;62.80
2751;DHT22;1383;48.362;10.908;2023-02-11T03:53:22;-1.30;62.70
2751;DHT22;1383;48.362;10.908;2023-02-11T03:55:50;-1.20;62.60
2751;DHT22;1383;48.362;10.908;2023-02-11T03:58:19;-1.20;61.90
2751;DHT22;1383;48.362;10.908;2023-02-11T04:00:47;-1.10;60.80
2751;DHT22;1383;48.362;10.908;2023-02-11T04:03:14;-1.10;60.60
2751;DHT22;1383;48.362;10.908;2023-02-11T04:05:41;-1.10;60.60
2751;DHT22;1383;48.362;10.908;2023-02-11T04:08:08;-1.00;60.00
2751;DHT22;1383;48.362;10.908;2023-02-11T04:10:35;-1.10;59.90
2751;DHT22;1383;48.362;10.908;2023-02-11T04:13:01;-1.10;60.20
2751;DHT22;1383;48.362;10.908;2023-02-11T04:15:28;-1.20;60.40
2751;DHT22;1383;48.362;10.908;2023-02-11T04:17:55;-1.10;60.40
2751;DHT22;1383;48.362;10.908;2023-02-11T04:20:22;-1.10;59.90
2751;DHT22;1383;48.362;10.908;2023-02-11T04:22:49;-1.10;60.30
2751;DHT22;1383;48.362;10.908;2023-02-11T04:25:16;-1.20;59.80
2751;DHT22;1383;48.362;10.908;2023-02-11T04:27:43;-1.30;60.60
2751;DHT22;1383;48.362;10.908;2023-02-11T04:30:10;-1.30;60.60
2751;DHT22;1383;48.362;10.908;2023-02-11T04:32:36;-1.40;60.50
2751;DHT22;1383;48.362;10.908;2023-02-11T04:35:03;-1.40;61.20
2751;DHT22;1383;48.362;10.908;2023-02-11T04:37:30;-1.50;61.50
2751;DHT22;1383;48.362;10.908;2023-02-11T04:39:57;-1.50;62.10
2751;DHT22;1383;48.362;10.908;2023-02-11T04:42:24;-1.50;62.40
2751;DHT22;1383;48.362;10.908;2023-02-11T04:44:51;-1.40;62.30
2751;DHT22;1383;48.362;10.908;2023-02-11T04:47:17;-1.30;62.40
2751;DHT22;1383;48.362;10.908;2023-02-11T04:49:44;-1.20;62.10
2751;DHT22;1383;48.362;10.908;2023-02-11T04:52:11;-1.30;61.70
2751;DHT22;1383;48.362;10.908;2023-02-11T04:54:38;-1.30;62.00
2751;DHT22;1383;48.362;10.908;2023-02-11T04:57:05;-1.40;61.80
2751;DHT22;1383;48.362;10.908;2023-02-11T04:59:32;-1.30;62.20
2751;DHT22;1383;48.362;10.908;2023-02-11T05:01:58;-1.20;62.20
2751;DHT22;1383;48.362;10.908;2023-02-11T05:04:25;-1.20;61.60
2751;DHT22;1383;48.362;10.908;2023-02-11T05:06:52;-1.10;61.50
2751;DHT22;1383;48.362;10.908;2023-02-11T05:09:19;-1.00;60.90
2751;DHT22;1383;48.362;10.908;2023-02-11T05:11:45;-1.30;60.60
2751;DHT22;1383;48.362;10.908;2023-02-11T05:14:12;-1.30;62.10
2751;DHT22;1383;48.362;10.908;2023-02-11T05:16:39;-1.10;62.20
2751;DHT22;1383;48.362;10.908;2023-02-11T05:19:06;-1.10;61.80
2751;DHT22;1383;48.362;10.908;2023-02-11T05:21:32;-1.00;61.60
2751;DHT22;1383;48.362;10.908;2023-02-11T05:23:59;-0.90;60.90
2751;DHT22;1383;48.362;10.908;2023-02-11T05:26:26;-0.80;60.70
2751;DHT22;1383;48.362;10.908;2023-02-11T05:28:53;-0.70;60.20
2751;DHT22;1383;48.362;10.908;2023-02-11T05:31:19;-0.50;59.60
2751;DHT22;1383;48.362;10.908;2023-02-11T05:33:46;-0.50;58.20
2751;DHT22;1383;48.362;10.908;2023-02-11T05:36:13;-0.50;57.90
2751;DHT22;1383;48.362;10.908;2023-02-11T05:38:40;-0.50;57.40
2751;DHT22;1383;48.362;10.908;2023-02-11T05:41:09;-0.50;57.40
2751;DHT22;1383;48.362;10.908;2023-02-11T05:43:36;-0.50;57.70
2751;DHT22;1383;48.362;10.908;2023-02-11T05:46:03;-0.50;57.90
2751;DHT22;1383;48.362;10.908;2023-02-11T05:48:30;-0.50;58.10
2751;DHT22;1383;48.362;10.908;2023-02-11T05:50:57;-0.50;58.10
2751;DHT22;1383;48.362;10.908;2023-02-11T05:53:24;-0.40;58.20
2751;DHT22;1383;48.362;10.908;2023-02-11T05:55:51;-0.50;57.90
2751;DHT22;1383;48.362;10.908;2023-02-11T05:58:18;-0.40;58.40
2751;DHT22;1383;48.362;10.908;2023-02-11T06:00:45;-0.30;58.20
2751;DHT22;1383;48.362;10.908;2023-02-11T06:03:12;-0.30;57.70
2751;DHT22;1383;48.362;10.908;2023-02-11T06:05:38;-0.30;57.60
2751;DHT22;1383;48.362;10.908;2023-02-11T06:08:05;-0.20;57.40
2751;DHT22;1383;48.362;10.908;2023-02-11T06:10:32;-0.20;57.30
2751;DHT22;1383;48.362;10.908;2023-02-11T06:13:00;-0.10;57.40
2751;DHT22;1383;48.362;10.908;2023-02-11T06:15:27;0.00;57.50
2751;DHT22;1383;48.362;10.908;2023-02-11T06:17:54;0.00;57.30
2751;DHT22;1383;48.362;10.908;2023-02-11T06:20:21;0.10;57.10
2751;DHT22;1383;48.362;10.908;2023-02-11T06:22:48;0.10;56.70
2751;DHT22;1383;48.362;10.908;2023-02-11T06:25:15;0.10;55.80
2751;DHT22;1383;48.362;10.908;2023-02-11T06:27:42;0.10;55.60
2751;DHT22;1383;48.362;10.908;2023-02-11T06:30:09;0.20;55.60
2751;DHT22;1383;48.362;10.908;2023-02-11T06:32:36;0.10;55.50
2751;DHT22;1383;48.362;10.908;2023-02-11T06:35:12;0.10;55.70
2751;DHT22;1383;48.362;10.908;2023-02-11T06:37:40;0.10;55.60
2751;DHT22;1383;48.362;10.908;2023-02-11T06:40:08;0.10;55.30
2751;DHT22;1383;48.362;10.908;2023-02-11T06:42:35;0.10;55.30
2751;DHT22;1383;48.362;10.908;2023-02-11T06:45:04;0.10;55.60
2751;DHT22;1383;48.362;10.908;2023-02-11T06:47:31;0.10;55.30
2751;DHT22;1383;48.362;10.908;2023-02-11T06:49:58;0.10;55.80
2751;DHT22;1383;48.362;10.908;2023-02-11T06:52:25;0.20;55.90
2751;DHT22;1383;48.362;10.908;2023-02-11T06:54:52;0.20;55.40
2751;DHT22;1383;48.362;10.908;2023-02-11T06:57:19;0.20;55.40
2751;DHT22;1383;48.362;10.908;2023-02-11T06:59:45;0.10;55.30
2751;DHT22;1383;48.362;10.908;2023-02-11T07:02:12;0.20;55.20
2751;DHT22;1383;48.362;10.908;2023-02-11T07:04:40;0.30;55.00
2751;DHT22;1383;48.362;10.908;2023-02-11T07:07:06;0.40;54.70
2751;DHT22;1383;48.362;10.908;2023-02-11T07:09:33;0.50;54.20
2751;DHT22;1383;48.362;10.908;2023-02-11T07:12:00;0.50;53.70
2751;DHT22;1383;48.362;10.908;2023-02-11T07:14:27;0.60;53.90
2751;DHT22;1383;48.362;10.908;2023-02-11T07:16:54;0.70;53.30
2751;DHT22;1383;48.362;10.908;2023-02-11T07:19:20;0.70;53.10
2751;DHT22;1383;48.362;10.908;2023-02-11T07:21:47;0.70;53.00
2751;DHT22;1383;48.362;10.908;2023-02-11T07:24:14;0.80;53.00
2751;DHT22;1383;48.362;10.908;2023-02-11T07:26:41;0.70;52.90
2751;DHT22;1383;48.362;10.908;2023-02-11T07:29:08;0.80;52.80
2751;DHT22;1383;48.362;10.908;2023-02-11T07:31:34;0.80;53.10
2751;DHT22;1383;48.362;10.908;2023-02-11T07:34:02;0.70;53.50
2751;DHT22;1383;48.362;10.908;2023-02-11T07:36:30;0.80;53.10
2751;DHT22;1383;48.362;10.908;2023-02-11T07:38:58;0.90;53.00
2751;DHT22;1383;48.362;10.908;2023-02-11T07:41:25;1.00;52.80
2751;DHT22;1383;48.362;10.908;2023-02-11T07:43:53;1.00;52.60
2751;DHT22;1383;48.362;10.908;2023-02-11T07:46:22;1.00;52.60
2751;DHT22;1383;48.362;10.908;2023-02-11T07:48:49;1.10;52.40
2751;DHT22;1383;48.362;10.908;2023-02-11T07:51:37;1.10;52.50
2751;DHT22;1383;48.362;10.908;2023-02-11T07:54:03;1.30;51.80
2751;DHT22;1383;48.362;10.908;2023-02-11T07:56:31;1.30;51.20
2751;DHT22;1383;48.362;10.908;2023-02-11T07:59:00;1.40;51.00
2751;DHT22;1383;48.362;10.908;2023-02-11T08:01:28;1.50;50.50
2751;DHT22;1383;48.362;10.908;2023-02-11T08:03:56;1.60;50.30
2751;DHT22;1383;48.362;10.908;2023-02-11T08:06:26;1.80;50.00
2751;DHT22;1383;48.362;10.908;2023-02-11T08:08:54;2.00;48.50
2751;DHT22;1383;48.362;10.908;2023-02-11T08:11:23;2.10;48.20
2751;DHT22;1383;48.362;10.908;2023-02-11T08:13:51;2.20;47.80
2751;DHT22;1383;48.362;10.908;2023-02-11T08:18:48;2.40;46.70
2751;DHT22;1383;48.362;10.908;2023-02-11T08:21:16;2.20;47.20
2751;DHT22;1383;48.362;10.908;2023-02-11T08:23:43;2.40;47.80
2751;DHT22;1383;48.362;10.908;2023-02-11T08:26:14;2.60;47.30
2751;DHT22;1383;48.362;10.908;2023-02-11T08:28:42;2.60;45.90
2751;DHT22;1383;48.362;10.908;2023-02-11T08:31:18;2.60;45.80
2751;DHT22;1383;48.362;10.908;2023-02-11T08:33:46;2.60;45.70
2751;DHT22;1383;48.362;10.908;2023-02-11T08:38:40;2.50;45.90
2751;DHT22;1383;48.362;10.908;2023-02-11T08:41:07;2.50;46.40
2751;DHT22;1383;48.362;10.908;2023-02-11T08:43:35;2.70;46.60
2751;DHT22;1383;48.362;10.908;2023-02-11T08:46:02;2.90;46.50
2751;DHT22;1383;48.362;10.908;2023-02-11T08:48:29;3.10;45.30
2751;DHT22;1383;48.362;10.908;2023-02-11T08:50:56;3.30;44.40
2751;DHT22;1383;48.362;10.908;2023-02-11T08:53:23;3.50;44.10
2751;DHT22;1383;48.362;10.908;2023-02-11T08:55:51;3.90;43.50
2751;DHT22;1383;48.362;10.908;2023-02-11T08:58:19;4.00;43.00
2751;DHT22;1383;48.362;10.908;2023-02-11T09:00:47;4.20;41.40
2751;DHT22;1383;48.362;10.908;2023-02-11T09:03:15;4.40;40.80
2751;DHT22;1383;48.362;10.908;2023-02-11T09:05:46;4.50;40.30
2751;DHT22;1383;48.362;10.908;2023-02-11T09:08:14;4.50;39.50
2751;DHT22;1383;48.362;10.908;2023-02-11T09:10:42;4.60;39.50
2751;DHT22;1383;48.362;10.908;2023-02-11T09:13:09;4.40;39.40
2751;DHT22;1383;48.362;10.908;2023-02-11T09:15:36;4.50;39.90
2751;DHT22;1383;48.362;10.908;2023-02-11T09:18:04;4.40;39.60
2751;DHT22;1383;48.362;10.908;2023-02-11T09:20:31;4.50;40.00
2751;DHT22;1383;48.362;10.908;2023-02-11T09:22:58;4.30;40.60
2751;DHT22;1383;48.362;10.908;2023-02-11T09:25:25;4.20;41.00
2751;DHT22;1383;48.362;10.908;2023-02-11T09:27:52;4.10;41.30
2751;DHT22;1383;48.362;10.908;2023-02-11T09:30:19;4.20;41.80
2751;DHT22;1383;48.362;10.908;2023-02-11T09:32:46;4.40;41.70
2751;DHT22;1383;48.362;10.908;2023-02-11T09:35:13;4.50;41.30
2751;DHT22;1383;48.362;10.908;2023-02-11T09:37:40;4.70;41.20
2751;DHT22;1383;48.362;10.908;2023-02-11T09:40:07;4.70;40.50
2751;DHT22;1383;48.362;10.908;2023-02-11T09:42:59;4.70;40.40
2751;DHT22;1383;48.362;10.908;2023-02-11T09:45:30;4.90;39.80
2751;DHT22;1383;48.362;10.908;2023-02-11T09:48:14;5.00;39.90
2751;DHT22;1383;48.362;10.908;2023-02-11T09:50:56;5.10;38.70
2751;DHT22;1383;48.362;10.908;2023-02-11T09:53:26;5.20;37.90
2751;DHT22;1383;48.362;10.908;2023-02-11T09:55:55;5.20;38.20
2751;DHT22;1383;48.362;10.908;2023-02-11T09:58:30;5.30;38.10
2751;DHT22;1383;48.362;10.908;2023-02-11T10:01:26;5.40;37.80
2751;DHT22;1383;48.362;10.908;2023-02-11T10:09:48;5.90;36.50
2751;DHT22;1383;48.362;10.908;2023-02-11T10:21:44;6.40;35.30
2751;DHT22;1383;48.362;10.908;2023-02-11T10:24:15;6.50;34.20
2751;DHT22;1383;48.362;10.908;2023-02-11T10:26:43;6.50;33.70
2751;DHT22;1383;48.362;10.908;2023-02-11T10:29:39;6.50;33.40
2751;DHT22;1383;48.362;10.908;2023-02-11T10:35:19;6.40;33.70
2751;DHT22;1383;48.362;10.908;2023-02-11T10:37:47;6.30;33.80
2751;DHT22;1383;48.362;10.908;2023-02-11T10:40:20;6.40;33.60
2751;DHT22;1383;48.362;10.908;2023-02-11T10:43:00;6.50;33.60
2751;DHT22;1383;48.362;10.908;2023-02-11T10:46:11;6.50;33.10
2751;DHT22;1383;48.362;10.908;2023-02-11T10:48:50;6.50;33.20
2751;DHT22;1383;48.362;10.908;2023-02-11T10:51:29;6.50;33.10
2751;DHT22;1383;48.362;10.908;2023-02-11T10:56:47;6.60;32.90
2751;DHT22;1383;48.362;10.908;2023-02-11T10:59:38;6.80;33.30
2751;DHT22;1383;48.362;10.908;2023-02-11T11:02:35;6.90;32.90
2751;DHT22;1383;48.362;10.908;2023-02-11T11:05:19;7.00;32.90
2751;DHT22;1383;48.362;10.908;2023-02-11T11:08:01;7.10;31.80
2751;DHT22;1383;48.362;10.908;2023-02-11T11:10:36;7.10;31.90
2751;DHT22;1383;48.362;10.908;2023-02-11T11:13:33;7.30;31.40
2751;DHT22;1383;48.362;10.908;2023-02-11T11:18:44;7.50;31.50
2751;DHT22;1383;48.362;10.908;2023-02-11T11:23:49;7.60;31.00
2751;DHT22;1383;48.362;10.908;2023-02-11T11:26:17;7.40;30.70
2751;DHT22;1383;48.362;10.908;2023-02-11T11:28:53;7.20;31.20
2751;DHT22;1383;48.362;10.908;2023-02-11T11:31:31;7.10;31.90
2751;DHT22;1383;48.362;10.908;2023-02-11T11:34:02;7.10;32.10
2751;DHT22;1383;48.362;10.908;2023-02-11T11:36:39;7.10;32.10
2751;DHT22;1383;48.362;10.908;2023-02-11T11:39:52;7.10;32.40
2751;DHT22;1383;48.362;10.908;2023-02-11T11:42:25;7.00;33.00
2751;DHT22;1383;48.362;10.908;2023-02-11T11:45:00;7.10;33.80
2751;DHT22;1383;48.362;10.908;2023-02-11T11:47:35;7.20;34.20
2751;DHT22;1383;48.362;10.908;2023-02-11T11:50:26;7.20;34.40
2751;DHT22;1383;48.362;10.908;2023-02-11T11:53:09;7.20;34.70
2751;DHT22;1383;48.362;10.908;2023-02-11T11:58:37;7.20;34.90
2751;DHT22;1383;48.362;10.908;2023-02-11T12:01:30;7.20;34.90
2751;DHT22;1383;48.362;10.908;2023-02-11T12:07:16;7.20;35.40
2751;DHT22;1383;48.362;10.908;2023-02-11T12:12:50;7.20;35.50
2751;DHT22;1383;48.362;10.908;2023-02-11T12:28:39;7.00;36.50
2751;DHT22;1383;48.362;10.908;2023-02-11T12:36:50;6.90;36.90
2751;DHT22;1383;48.362;10.908;2023-02-11T12:39:28;6.80;37.10
2751;DHT22;1383;48.362;10.908;2023-02-11T12:45:11;7.00;36.60
2751;DHT22;1383;48.362;10.908;2023-02-11T12:52:54;7.10;36.80
2751;DHT22;1383;48.362;10.908;2023-02-11T12:55:26;7.20;36.80
2751;DHT22;1383;48.362;10.908;2023-02-11T12:57:55;7.30;36.60
2751;DHT22;1383;48.362;10.908;2023-02-11T13:00:37;7.40;36.50
2751;DHT22;1383;48.362;10.908;2023-02-11T13:03:12;7.50;36.00
2751;DHT22;1383;48.362;10.908;2023-02-11T13:05:48;7.60;35.80
2751;DHT22;1383;48.362;10.908;2023-02-11T13:10:51;7.80;35.40
2751;DHT22;1383;48.362;10.908;2023-02-11T13:13:33;8.00;35.20
2751;DHT22;1383;48.362;10.908;2023-02-11T13:16:04;8.10;35.00
2751;DHT22;1383;48.362;10.908;2023-02-11T13:18:43;8.20;34.80
2751;DHT22;1383;48.362;10.908;2023-02-11T13:26:39;8.40;34.30
2751;DHT22;1383;48.362;10.908;2023-02-11T13:32:08;8.40;34.60
2751;DHT22;1383;48.362;10.908;2023-02-11T13:37:34;8.30;34.80
2751;DHT22;1383;48.362;10.908;2023-02-11T13:40:06;8.40;34.90
2751;DHT22;1383;48.362;10.908;2023-02-11T13:42:48;8.40;34.80
2751;DHT22;1383;48.362;10.908;2023-02-11T13:45:40;8.50;34.50
2751;DHT22;1383;48.362;10.908;2023-02-11T13:48:19;8.50;34.50
2751;DHT22;1383;48.362;10.908;2023-02-11T13:50:53;8.50;34.90
2751;DHT22;1383;48.362;10.908;2023-02-11T13:53:21;8.50;34.60
2751;DHT22;1383;48.362;10.908;2023-02-11T13:55:51;8.50;34.70
2751;DHT22;1383;48.362;10.908;2023-02-11T14:00:53;8.50;34.70
2751;DHT22;1383;48.362;10.908;2023-02-11T14:03:26;8.60;34.50
2751;DHT22;1383;48.362;10.908;2023-02-11T14:14:20;8.40;35.00
2751;DHT22;1383;48.362;10.908;2023-02-11T14:19:51;8.40;34.40
2751;DHT22;1383;48.362;10.908;2023-02-11T14:22:30;8.50;34.40
2751;DHT22;1383;48.362;10.908;2023-02-11T14:25:22;8.50;34.30
2751;DHT22;1383;48.362;10.908;2023-02-11T14:28:05;8.50;33.70
2751;DHT22;1383;48.362;10.908;2023-02-11T14:30:58;8.50;33.80
2751;DHT22;1383;48.362;10.908;2023-02-11T14:33:54;8.50;33.90
2751;DHT22;1383;48.362;10.908;2023-02-11T14:42:00;8.80;33.30
2751;DHT22;1383;48.362;10.908;2023-02-11T14:44:30;8.70;33.50
2751;DHT22;1383;48.362;10.908;2023-02-11T14:46:58;8.60;33.70
2751;DHT22;1383;48.362;10.908;2023-02-11T14:49:32;8.50;33.90
2751;DHT22;1383;48.362;10.908;2023-02-11T14:52:05;8.40;34.20
2751;DHT22;1383;48.362;10.908;2023-02-11T14:54:34;8.40;34.30
2751;DHT22;1383;48.362;10.908;2023-02-11T14:59:37;8.30;34.70
2751;DHT22;1383;48.362;10.908;2023-02-11T15:02:22;8.30;35.00
2751;DHT22;1383;48.362;10.908;2023-02-11T15:04:49;8.20;35.00
2751;DHT22;1383;48.362;10.908;2023-02-11T15:07:17;8.10;35.20
2751;DHT22;1383;48.362;10.908;2023-02-11T15:09:47;8.00;35.30
2751;DHT22;1383;48.362;10.908;2023-02-11T15:12:22;8.00;35.60
2751;DHT22;1383;48.362;10.908;2023-02-11T15:14:53;8.00;35.80
2751;DHT22;1383;48.362;10.908;2023-02-11T15:17:24;8.10;36.00
2751;DHT22;1383;48.362;10.908;2023-02-11T15:19:54;8.10;35.90
2751;DHT22;1383;48.362;10.908;2023-02-11T15:22:26;8.20;35.60
2751;DHT22;1383;48.362;10.908;2023-02-11T15:25:14;8.20;35.60
2751;DHT22;1383;48.362;10.908;2023-02-11T15:32:55;8.20;35.40
2751;DHT22;1383;48.362;10.908;2023-02-11T15:35:31;8.20;35.50
2751;DHT22;1383;48.362;10.908;2023-02-11T15:38:00;8.20;35.60
2751;DHT22;1383;48.362;10.908;2023-02-11T15:40:30;8.20;36.10
2751;DHT22;1383;48.362;10.908;2023-02-11T15:43:09;8.20;35.50
2751;DHT22;1383;48.362;10.908;2023-02-11T15:45:39;8.20;35.40
2751;DHT22;1383;48.362;10.908;2023-02-11T15:48:15;8.10;35.50
2751;DHT22;1383;48.362;10.908;2023-02-11T15:50:50;8.10;35.70
2751;DHT22;1383;48.362;10.908;2023-02-11T15:53:37;8.00;35.70
2751;DHT22;1383;48.362;10.908;2023-02-11T15:56:10;8.00;36.00
2751;DHT22;1383;48.362;10.908;2023-02-11T15:58:40;8.00;36.10
2751;DHT22;1383;48.362;10.908;2023-02-11T16:01:10;7.90;36.20
2751;DHT22;1383;48.362;10.908;2023-02-11T16:03:40;7.90;36.80
2751;DHT22;1383;48.362;10.908;2023-02-11T16:06:37;7.90;36.80
2751;DHT22;1383;48.362;10.908;2023-02-11T16:09:32;7.80;37.70
2751;DHT22;1383;48.362;10.908;2023-02-11T16:12:02;7.80;37.70
2751;DHT22;1383;48.362;10.908;2023-02-11T16:14:33;7.80;38.00
2751;DHT22;1383;48.362;10.908;2023-02-11T16:17:12;7.60;38.30
2751;DHT22;1383;48.362;10.908;2023-02-11T16:19:49;7.60;38.50
2751;DHT22;1383;48.362;10.908;2023-02-11T16:22:26;7.50;38.70
2751;DHT22;1383;48.362;10.908;2023-02-11T16:24:57;7.40;39.10
2751;DHT22;1383;48.362;10.908;2023-02-11T16:27:41;7.30;39.30
2751;DHT22;1383;48.362;10.908;2023-02-11T16:30:36;7.30;39.60
2751;DHT22;1383;48.362;10.908;2023-02-11T16:33:03;7.20;39.90
2751;DHT22;1383;48.362;10.908;2023-02-11T16:35:31;7.20;40.10
2751;DHT22;1383;48.362;10.908;2023-02-11T16:37:58;7.20;40.20
2751;DHT22;1383;48.362;10.908;2023-02-11T16:40:24;7.20;40.20
2751;DHT22;1383;48.362;10.908;2023-02-11T16:42:51;7.10;40.10
2751;DHT22;1383;48.362;10.908;2023-02-11T16:45:19;7.10;40.60
2751;DHT22;1383;48.362;10.908;2023-02-11T16:47:46;7.10;40.80
2751;DHT22;1383;48.362;10.908;2023-02-11T16:50:24;7.00;41.20
2751;DHT22;1383;48.362;10.908;2023-02-11T16:52:51;7.00;41.20
2751;DHT22;1383;48.362;10.908;2023-02-11T16:55:18;7.10;41.00
2751;DHT22;1383;48.362;10.908;2023-02-11T16:57:47;7.00;41.10
2751;DHT22;1383;48.362;10.908;2023-02-11T17:00:15;7.00;41.20
2751;DHT22;1383;48.362;10.908;2023-02-11T17:02:43;7.10;41.30
2751;DHT22;1383;48.362;10.908;2023-02-11T17:05:21;7.10;41.50
2751;DHT22;1383;48.362;10.908;2023-02-11T17:07:51;7.10;41.60
2751;DHT22;1383;48.362;10.908;2023-02-11T17:10:21;7.10;41.50
2751;DHT22;1383;48.362;10.908;2023-02-11T17:12:50;7.00;42.20
2751;DHT22;1383;48.362;10.908;2023-02-11T17:15:18;7.10;41.70
2751;DHT22;1383;48.362;10.908;2023-02-11T17:17:44;7.10;41.60
2751;DHT22;1383;48.362;10.908;2023-02-11T17:20:12;7.10;41.60
2751;DHT22;1383;48.362;10.908;2023-02-11T17:22:40;7.10;41.70
2751;DHT22;1383;48.362;10.908;2023-02-11T17:25:07;7.10;42.10
2751;DHT22;1383;48.362;10.908;2023-02-11T17:27:34;7.10;42.00
2751;DHT22;1383;48.362;10.908;2023-02-11T17:30:01;7.10;41.90
2751;DHT22;1383;48.362;10.908;2023-02-11T17:32:28;7.10;41.90
2751;DHT22;1383;48.362;10.908;2023-02-11T17:34:55;7.10;41.90
2751;DHT22;1383;48.362;10.908;2023-02-11T17:37:22;7.10;41.80
2751;DHT22;1383;48.362;10.908;2023-02-11T17:39:49;7.00;41.80
2751;DHT22;1383;48.362;10.908;2023-02-11T17:42:16;7.00;41.80
2751;DHT22;1383;48.362;10.908;2023-02-11T17:44:45;7.00;42.10
2751;DHT22;1383;48.362;10.908;2023-02-11T17:47:12;7.00;42.10
2751;DHT22;1383;48.362;10.908;2023-02-11T17:49:39;7.00;42.30
2751;DHT22;1383;48.362;10.908;2023-02-11T17:52:06;7.00;42.20
2751;DHT22;1383;48.362;10.908;2023-02-11T17:54:33;6.90;42.40
2751;DHT22;1383;48.362;10.908;2023-02-11T17:56:59;6.90;42.50
2751;DHT22;1383;48.362;10.908;2023-02-11T17:59:26;6.90;42.60
2751;DHT22;1383;48.362;10.908;2023-02-11T18:01:57;6.90;42.50
2751;DHT22;1383;48.362;10.908;2023-02-11T18:04:24;6.90;42.60
2751;DHT22;1383;48.362;10.908;2023-02-11T18:06:51;6.80;42.50
2751;DHT22;1383;48.362;10.908;2023-02-11T18:09:19;6.70;42.90
2751;DHT22;1383;48.362;10.908;2023-02-11T18:11:46;6.70;43.30
2751;DHT22;1383;48.362;10.908;2023-02-11T18:14:14;6.60;43.40
2751;DHT22;1383;48.362;10.908;2023-02-11T18:16:40;6.60;43.50
2751;DHT22;1383;48.362;10.908;2023-02-11T18:19:10;6.60;43.70
2751;DHT22;1383;48.362;10.908;2023-02-11T18:21:38;6.60;43.80
2751;DHT22;1383;48.362;10.908;2023-02-11T18:24:05;6.50;44.30
2751;DHT22;1383;48.362;10.908;2023-02-11T18:26:33;6.60;44.50
2751;DHT22;1383;48.362;10.908;2023-02-11T18:29:00;6.70;44.20
2751;DHT22;1383;48.362;10.908;2023-02-11T18:31:27;6.60;43.90
2751;DHT22;1383;48.362;10.908;2023-02-11T18:33:54;6.60;44.00
2751;DHT22;1383;48.362;10.908;2023-02-11T18:36:21;6.60;44.10